createdAt,value
2019-04-23T17:23:28.953Z,95851.84
2019-04-23T17:25:48.543Z,95854.25
2019-04-23T17:28:23.010Z,95852.45
2019-04-23T17:31:06.151Z,95859.38
2019-04-23T17:33:33.506Z,95861.36
2019-04-23T17:36:14.664Z,95863.36
2019-04-23T17:38:37.909Z,95865.56
2019-04-23T17:41:07.341Z,95868.77
2019-04-23T17:43:39.938Z,95862.63
2019-04-23T17:46:08.891Z,95861.75
2019-04-23T17:48:34.550Z,95862.90
2019-04-23T17:51:11.564Z,95866.94
2019-04-23T17:53:56.169Z,95862.72
2019-04-23T17:58:58.604Z,95867.90
2019-04-23T18:04:45.005Z,95870.97
2019-04-23T18:08:51.008Z,95869.75
2019-04-23T18:11:16.230Z,95876.08
2019-04-23T18:13:49.511Z,95868.86
2019-04-23T18:18:55.221Z,95876.38
2019-04-23T18:24:14.826Z,95876.77
2019-04-23T18:26:36.029Z,95883.72
2019-04-23T18:29:22.486Z,95882.23
2019-04-23T18:31:59.528Z,95887.20
2019-04-23T18:34:42.306Z,95884.44
2019-04-23T18:37:01.532Z,95888.55
2019-04-23T18:39:38.810Z,95887.89
2019-04-23T18:42:13.365Z,95888.34
2019-04-23T18:44:36.438Z,95894.88
2019-04-23T18:47:07.599Z,95899.81
2019-04-23T18:49:40.905Z,95904.74
2019-04-23T18:52:05.065Z,95908.73
2019-04-23T18:54:32.970Z,95910.76
2019-04-23T18:59:47.148Z,95917.30
2019-04-23T19:02:20.479Z,95918.68
2019-04-23T19:07:42.979Z,95925.72
2019-04-23T19:12:53.690Z,95926.92
2019-04-23T19:15:23.580Z,95930.67
2019-04-23T19:20:29.785Z,95931.11
2019-04-23T19:22:55.164Z,95933.84
2019-04-23T19:27:45.892Z,95939.33
2019-04-23T19:30:37.029Z,95940.50
2019-04-23T19:32:55.611Z,95940.69
2019-04-23T19:35:53.806Z,95935.81
2019-04-23T19:38:08.283Z,95942.44
2019-04-23T19:40:29.827Z,95939.91
2019-04-23T19:42:55.298Z,95943.41
2019-04-23T19:45:29.801Z,95941.50
2019-04-23T19:50:38.847Z,95946.95
2019-04-23T19:55:30.136Z,95954.93
2019-04-23T19:58:07.110Z,95954.54
2019-04-23T20:00:53.460Z,95957.84
2019-04-23T20:03:17.260Z,95958.42
2019-04-23T20:05:30.852Z,95954.94
2019-04-23T20:08:25.481Z,95957.05
2019-04-23T20:10:33.141Z,95953.72
